首页
METAR-TAF:

METAR-TAF

机场 :

巴斯蒂亚, 法国

纬度: 42-33N, 经度: 009-29E, 海拔: 8米

当前天气观测

该预报发布于17分钟前的16:30 UTC
风速4节,风向,在东转东北南转南东之间变化
温度 27°C
湿度 54%
气压 1013 hPa
能见度10公里或以上
少量云层高于4700英尺
散云层高于5400英尺

METAR: LFKB 151630Z AUTO 10004KT 060V150 9999 FEW047 SCT054 27/17 Q1013 NOSIG

时间: 18:47 (16:47 UTC)

预报

该预报发布于2小时和47分钟前的14:00 UTC
预报有效从15日的 15点(UTC)到 16日的 15点(UTC)
风速10节,风向东南
能见度10公里或以上
少量云层高于5000英尺
多云层高于13000英尺
成为
从 15日的 18点(UTC)到 15日的 20点(UTC)
风速5节,风向西转西南
成为
从 16日的 07点(UTC)到 16日的 09点(UTC)
风速10节,风向东转东南
短暂存在
从 16日的 11点(UTC)到 16日的 15点(UTC)
风速10节,风向多变,有时为20节阵风
少量云层高于4000英尺, 积雨云.
多云层高于12000英尺
雷暴, 雨

TAF: LFKB 151400Z 1515/1615 14010KT 9999 FEW050 BKN130 TX28/1611Z TN19/1604Z BECMG 1518/1520 24005KT BECMG 1607/1609 12010KT TEMPO 1611/1615 VRB10G20KT TSRA FEW040CB BKN120

超过4000个机场的气象观测和天气预报(METAR&TAF报告)。

可查询的气象台以黄色和红色小点在地图上表示。

将鼠标移到小点上方,可查看气象台名称。

然后点击查看天气观测和预报。

如需切换地图:点击带黑十字的绿色按钮放大地图;点击带横线的绿色按钮缩小地图;或者点击绿色箭头查看邻近地区的地图。


METAR-TAF: